createdAt,value
2018-03-24T00:01:25.729Z,3.30
2018-03-24T00:06:29.168Z,3.30
2018-03-24T00:11:31.738Z,3.30
2018-03-24T00:16:34.286Z,3.30
2018-03-24T00:21:36.854Z,3.20
2018-03-24T00:26:39.426Z,3.20
2018-03-24T00:31:41.978Z,3.20
2018-03-24T00:36:44.516Z,3.20
2018-03-24T00:41:47.100Z,3.20
2018-03-24T00:46:49.651Z,3.20
2018-03-24T00:51:53.006Z,3.10
2018-03-24T00:56:55.570Z,3.10
2018-03-24T01:01:58.141Z,3.10
2018-03-24T01:07:00.697Z,3.10
2018-03-24T01:12:03.290Z,3.10
2018-03-24T01:17:05.861Z,3.10
2018-03-24T01:22:09.198Z,3.00
2018-03-24T01:27:12.544Z,3.00
2018-03-24T01:32:15.115Z,3.00
2018-03-24T01:37:17.660Z,3.00
2018-03-24T01:42:20.197Z,2.90
2018-03-24T01:47:22.773Z,2.90
2018-03-24T01:52:25.325Z,2.90
2018-03-24T01:57:27.884Z,2.90
2018-03-24T02:02:30.457Z,2.90
2018-03-24T02:07:33.001Z,2.90
2018-03-24T02:12:35.558Z,2.90
2018-03-24T02:17:38.127Z,2.90
2018-03-24T02:22:40.698Z,2.90
2018-03-24T02:27:43.334Z,2.90
2018-03-24T02:32:45.976Z,2.80
2018-03-24T02:37:48.552Z,2.90
2018-03-24T02:42:51.120Z,2.80
2018-03-24T02:47:53.694Z,2.90
2018-03-24T02:52:57.002Z,2.80
2018-03-24T02:57:59.568Z,2.80
2018-03-24T03:03:02.202Z,2.80
2018-03-24T03:08:05.514Z,2.80
2018-03-24T03:13:08.109Z,2.80
2018-03-24T03:18:10.645Z,2.80
2018-03-24T03:23:13.185Z,2.80
2018-03-24T03:28:15.747Z,2.80
2018-03-24T03:33:18.317Z,2.80
2018-03-24T03:38:20.909Z,2.80
2018-03-24T03:43:24.253Z,2.80
2018-03-24T03:48:26.821Z,2.80
2018-03-24T03:53:29.397Z,2.80
2018-03-24T03:58:31.950Z,2.70
2018-03-24T04:03:35.274Z,2.70
2018-03-24T04:08:37.826Z,2.70
2018-03-24T04:13:40.378Z,2.70
2018-03-24T04:18:43.921Z,2.70
2018-03-24T04:23:46.510Z,2.70
2018-03-24T04:28:49.130Z,2.70
2018-03-24T04:33:51.700Z,2.60
2018-03-24T04:38:54.257Z,2.60
2018-03-24T04:43:56.831Z,2.60
2018-03-24T04:48:59.386Z,2.60
2018-03-24T04:54:02.833Z,2.60
2018-03-24T04:59:05.387Z,2.60
2018-03-24T05:04:07.976Z,2.60
2018-03-24T05:09:11.233Z,2.60
2018-03-24T05:14:13.808Z,2.60
2018-03-24T05:19:16.353Z,2.50
2018-03-24T05:24:18.910Z,2.50
2018-03-24T05:29:21.461Z,2.50
2018-03-24T05:34:24.022Z,2.60
2018-03-24T05:39:26.555Z,2.60
2018-03-24T05:44:29.195Z,2.50
2018-03-24T05:49:31.751Z,2.60
2018-03-24T05:54:34.474Z,2.50
2018-03-24T05:59:37.108Z,2.50
2018-03-24T06:04:39.664Z,2.60
2018-03-24T06:09:42.228Z,2.60
2018-03-24T06:14:45.849Z,2.60
2018-03-24T06:19:48.397Z,2.60
2018-03-24T06:24:50.971Z,2.70
2018-03-24T06:29:53.519Z,2.70
2018-03-24T06:34:56.082Z,2.70
2018-03-24T06:39:58.635Z,2.70
2018-03-24T06:45:01.238Z,2.80
2018-03-24T06:50:03.801Z,2.80
2018-03-24T06:55:06.354Z,2.80
2018-03-24T07:00:08.893Z,2.80
2018-03-24T07:05:11.455Z,2.90
2018-03-24T07:10:14.026Z,2.90
2018-03-24T07:15:17.366Z,3.00
2018-03-24T07:20:20.682Z,3.10
2018-03-24T07:25:23.239Z,3.00
2018-03-24T07:30:25.867Z,3.20
2018-03-24T07:35:28.420Z,3.30
2018-03-24T07:40:30.975Z,3.50
2018-03-24T07:45:34.298Z,3.80
2018-03-24T07:50:37.687Z,4.00
2018-03-24T07:55:40.281Z,3.90
2018-03-24T08:00:42.855Z,4.20
2018-03-24T08:05:45.425Z,4.40
2018-03-24T08:10:48.006Z,4.80
2018-03-24T08:15:51.339Z,5.50
2018-03-24T08:20:53.915Z,5.50
2018-03-24T08:25:56.474Z,6.00
2018-03-24T08:30:59.035Z,6.40
2018-03-24T08:36:01.574Z,6.70
2018-03-24T08:41:04.102Z,7.10
2018-03-24T08:46:06.645Z,7.50
2018-03-24T08:51:09.174Z,7.80
2018-03-24T08:56:11.728Z,8.20
2018-03-24T09:01:15.030Z,8.80
2018-03-24T09:06:17.577Z,8.70
2018-03-24T09:11:20.127Z,9.10
2018-03-24T09:16:22.662Z,9.30
2018-03-24T09:21:25.224Z,9.60
2018-03-24T09:26:27.814Z,9.80
2018-03-24T09:31:30.366Z,10.00
2018-03-24T09:36:32.934Z,10.30
2018-03-24T09:41:35.483Z,10.40
2018-03-24T09:46:38.449Z,10.60
2018-03-24T09:51:41.036Z,10.80
2018-03-24T09:56:43.595Z,11.00
2018-03-24T10:01:46.167Z,11.20
2018-03-24T10:06:48.709Z,11.20
2018-03-24T10:11:52.109Z,10.90
2018-03-24T10:16:54.853Z,10.60
2018-03-24T10:27:39.177Z,10.10
2018-03-24T10:32:41.730Z,9.90
2018-03-24T10:37:49.861Z,9.80
2018-03-24T10:42:58.196Z,9.80
2018-03-24T10:48:00.718Z,9.80
2018-03-24T10:53:03.296Z,10.00
2018-03-24T10:58:05.826Z,10.20
2018-03-24T11:03:08.372Z,10.40
2018-03-24T11:08:10.910Z,10.40
2018-03-24T11:13:13.450Z,10.40
2018-03-24T11:18:16.024Z,10.50
2018-03-24T11:23:18.591Z,10.90
2018-03-24T11:28:21.989Z,11.30
2018-03-24T11:33:24.553Z,11.60
2018-03-24T11:38:27.135Z,11.60
2018-03-24T11:43:29.691Z,11.60
2018-03-24T11:48:32.239Z,11.70
2018-03-24T11:53:45.555Z,11.70
2018-03-24T11:58:48.095Z,11.90
2018-03-24T12:03:50.644Z,12.10
2018-03-24T12:08:53.173Z,12.20
2018-03-24T12:13:55.764Z,12.20
2018-03-24T12:18:58.393Z,12.20
2018-03-24T12:24:00.947Z,12.50
2018-03-24T12:29:04.256Z,12.80
2018-03-24T12:34:06.795Z,12.70
2018-03-24T12:39:09.337Z,13.00
2018-03-24T12:44:11.887Z,13.10
2018-03-24T12:49:14.787Z,13.30
2018-03-24T12:54:18.163Z,13.40
2018-03-24T12:59:20.736Z,13.20
2018-03-24T13:04:24.151Z,13.20
2018-03-24T13:09:26.779Z,13.20
2018-03-24T13:14:29.329Z,13.10
2018-03-24T13:19:32.644Z,13.60
2018-03-24T13:24:35.217Z,13.60
2018-03-24T13:29:37.823Z,13.70
2018-03-24T13:34:40.379Z,13.70
2018-03-24T13:39:42.963Z,13.90
2018-03-24T13:44:45.492Z,14.00
2018-03-24T13:49:48.025Z,14.00
2018-03-24T13:54:50.622Z,14.10
2018-03-24T13:59:53.210Z,13.70
2018-03-24T14:04:55.770Z,13.70
2018-03-24T14:09:58.326Z,13.90
2018-03-24T14:15:00.894Z,14.00
2018-03-24T14:20:03.466Z,14.00
2018-03-24T14:25:06.010Z,14.10
2018-03-24T14:30:08.594Z,14.00
2018-03-24T14:35:11.937Z,14.00
2018-03-24T14:40:14.503Z,14.00
2018-03-24T14:45:17.051Z,14.00
2018-03-24T14:50:19.666Z,14.00
2018-03-24T14:55:22.199Z,14.00
2018-03-24T15:00:24.765Z,14.00
2018-03-24T15:05:27.323Z,13.90
2018-03-24T15:10:29.862Z,13.90
2018-03-24T15:15:32.405Z,13.80
2018-03-24T15:20:34.962Z,13.80
2018-03-24T15:25:37.509Z,13.70
2018-03-24T15:30:51.961Z,13.60
2018-03-24T15:36:06.523Z,13.50
2018-03-24T15:41:11.777Z,13.40
2018-03-24T15:46:14.665Z,13.40
2018-03-24T15:51:17.242Z,13.20
2018-03-24T15:56:19.815Z,13.10
2018-03-24T16:01:22.361Z,13.00
2018-03-24T16:06:24.959Z,12.60
2018-03-24T16:11:27.599Z,12.50
2018-03-24T16:16:30.159Z,12.50
2018-03-24T16:21:33.425Z,12.50
2018-03-24T16:26:36.033Z,12.40
2018-03-24T16:31:38.606Z,12.30
2018-03-24T16:36:41.211Z,12.20
2018-03-24T16:41:43.758Z,12.10
2018-03-24T16:46:46.326Z,12.00
2018-03-24T16:51:49.751Z,11.70
2018-03-24T16:56:53.081Z,11.60
2018-03-24T17:01:55.680Z,11.60
2018-03-24T17:06:58.272Z,11.50
2018-03-24T17:12:01.600Z,11.20
2018-03-24T17:17:04.202Z,11.20
2018-03-24T17:22:06.772Z,11.00
2018-03-24T17:27:09.356Z,10.80
2018-03-24T17:32:11.918Z,10.70
2018-03-24T17:37:14.482Z,10.50
2018-03-24T17:42:17.034Z,10.30
2018-03-24T17:47:20.344Z,10.00
2018-03-24T17:52:22.886Z,9.90
2018-03-24T17:57:26.211Z,9.60
2018-03-24T18:02:28.767Z,9.60
2018-03-24T18:07:31.345Z,9.40
2018-03-24T18:12:33.907Z,9.30
2018-03-24T18:17:36.491Z,9.10
2018-03-24T18:22:39.030Z,9.00
2018-03-24T18:27:41.810Z,8.80
2018-03-24T18:32:45.668Z,8.70
2018-03-24T18:37:48.235Z,8.50
2018-03-24T18:42:51.839Z,8.20
2018-03-24T18:47:54.391Z,8.20
2018-03-24T18:52:56.938Z,8.10
2018-03-24T18:57:59.486Z,8.00
2018-03-24T19:03:02.054Z,7.80
2018-03-24T19:08:05.375Z,7.60
2018-03-24T19:13:08.689Z,7.50
2018-03-24T19:18:11.246Z,7.40
2018-03-24T19:23:13.826Z,7.30
2018-03-24T19:28:16.400Z,7.20
2018-03-24T19:33:18.975Z,7.10
2018-03-24T19:38:21.521Z,7.00
2018-03-24T19:43:24.064Z,6.80
2018-03-24T19:48:26.603Z,6.70
2018-03-24T19:53:29.153Z,6.60
2018-03-24T19:58:31.695Z,6.50
2018-03-24T20:03:34.272Z,6.40
2018-03-24T20:08:38.180Z,6.20
2018-03-24T20:13:40.721Z,6.10
2018-03-24T20:18:43.271Z,6.00
2018-03-24T20:23:45.850Z,5.90
2018-03-24T20:28:48.397Z,5.80
2018-03-24T20:33:50.967Z,5.70
2018-03-24T20:38:53.502Z,5.50
2018-03-24T20:43:56.822Z,5.30
2018-03-24T20:48:59.373Z,5.30
2018-03-24T20:54:01.977Z,5.20
2018-03-24T20:59:04.471Z,5.10
2018-03-24T21:04:07.022Z,5.00
2018-03-24T21:09:10.340Z,4.80
2018-03-24T21:14:12.893Z,4.80
2018-03-24T21:19:15.473Z,4.70
2018-03-24T21:24:18.086Z,4.60
2018-03-24T21:29:20.620Z,4.50
2018-03-24T21:34:23.174Z,4.40
2018-03-24T21:39:25.737Z,4.30
2018-03-24T21:44:28.262Z,4.30
2018-03-24T21:49:30.810Z,4.20
2018-03-24T21:54:33.354Z,4.10
2018-03-24T21:59:35.911Z,4.00
2018-03-24T22:04:38.465Z,3.90
2018-03-24T22:09:41.032Z,3.80
2018-03-24T22:14:43.569Z,3.80
2018-03-24T22:19:46.133Z,3.70
2018-03-24T22:24:48.677Z,3.60
2018-03-24T22:29:51.251Z,3.50
2018-03-24T22:34:53.791Z,3.50
2018-03-24T22:39:56.348Z,3.40
2018-03-24T22:44:58.891Z,3.40
2018-03-24T22:50:02.247Z,3.30
2018-03-24T23:00:13.694Z,3.20
2018-03-24T23:05:16.247Z,3.20
2018-03-24T23:10:18.830Z,3.10
2018-03-24T23:15:21.402Z,3.00
2018-03-24T23:20:24.664Z,3.00
2018-03-24T23:25:27.984Z,2.90
2018-03-24T23:30:31.302Z,2.80
2018-03-24T23:35:33.847Z,2.80
2018-03-24T23:40:36.396Z,2.80
2018-03-24T23:45:39.693Z,2.70
2018-03-24T23:50:42.433Z,2.70
2018-03-24T23:55:44.970Z,2.60
